Time;durP1;ratioP1;P1;durP2;ratioP2;P2;SDS_P1;SDS_P2;PMS_P1;PMS_P2;Temp;Humidity;BMP_temperature;BMP_pressure;BME280_temperature;BME280_humidity;BME280_pressure;Samples;Min_cycle;Max_cycle;Signal;HPM_P1;HPM_P2
2022/04/16 00:01:27;;;;;;;3.42;3.02;;;;;;;18.78;46.79;99297.35;1789027;80;21216;-62
2022/04/16 00:03:55;;;;;;;3.50;3.17;;;;;;;18.78;46.82;99308.11;1768131;80;22133;-62
2022/04/16 00:06:22;;;;;;;3.27;2.85;;;;;;;18.76;46.85;99302.15;1721244;81;21092;-62
2022/04/16 00:08:50;;;;;;;3.65;3.27;;;;;;;18.77;46.83;99309.69;1765946;81;21084;-60
2022/04/16 00:11:18;;;;;;;3.65;3.10;;;;;;;18.76;46.88;99310.75;1765959;81;21033;-61
2022/04/16 00:13:46;;;;;;;3.42;3.12;;;;;;;18.75;46.88;99313.95;1765938;81;21057;-61
2022/04/16 00:16:12;;;;;;;3.20;2.90;;;;;;;18.75;46.89;99305.06;1785622;79;21155;-61
2022/04/16 00:18:39;;;;;;;3.35;2.95;;;;;;;18.73;46.90;99305.83;1797385;79;20982;-61
2022/04/16 00:21:06;;;;;;;3.80;3.10;;;;;;;18.73;46.92;99316.59;1797733;79;21030;-61
2022/04/16 00:23:34;;;;;;;3.22;2.92;;;;;;;18.72;46.92;99317.66;1797472;79;20990;-62
2022/04/16 00:26:02;;;;;;;3.40;3.10;;;;;;;18.71;46.93;99332.95;1797885;79;21001;-61
2022/04/16 00:28:30;;;;;;;3.17;2.95;;;;;;;18.71;46.96;99324.88;1797437;79;21136;-62
2022/04/16 00:30:57;;;;;;;3.62;3.33;;;;;;;18.70;46.97;99324.60;1797495;79;21053;-62
2022/04/16 00:33:25;;;;;;;3.60;3.30;;;;;;;18.70;46.97;99326.45;1796953;79;20997;-63
2022/04/16 00:35:53;;;;;;;3.62;3.27;;;;;;;18.70;47.00;99326.45;1797431;79;21002;-62
2022/04/16 00:38:20;;;;;;;3.52;3.22;;;;;;;18.68;46.98;99313.25;1797494;79;21052;-62
2022/04/16 00:40:47;;;;;;;3.55;2.95;;;;;;;18.66;46.99;99302.72;1797713;79;21296;-62
2022/04/16 00:43:27;;;;;;;3.12;2.77;;;;;;;18.65;47.00;99298.91;1797494;79;21537;-62
2022/04/16 00:45:55;;;;;;;3.98;3.40;;;;;;;18.64;47.04;99308.86;1797608;79;21048;-62
2022/04/16 00:48:22;;;;;;;3.75;3.27;;;;;;;18.63;47.06;99338.14;1797321;79;21561;-62
2022/04/16 00:50:54;;;;;;;3.65;3.35;;;;;;;18.62;47.10;99342.41;1796559;79;21014;-62
2022/04/16 00:53:21;;;;;;;4.28;3.30;;;;;;;18.61;47.10;99325.45;1797531;79;21864;-62
2022/04/16 00:55:47;;;;;;;3.42;3.12;;;;;;;18.60;47.15;99317.10;1797511;79;21024;-62
2022/04/16 00:58:14;;;;;;;3.45;3.15;;;;;;;18.59;47.12;99307.37;1797474;79;21009;-62
2022/04/16 01:00:42;;;;;;;3.42;3.05;;;;;;;18.59;47.13;99307.91;1797664;79;21061;-62
2022/04/16 01:03:09;;;;;;;3.30;3.00;;;;;;;18.57;47.15;99298.72;1797592;79;20974;-62
2022/04/16 01:05:37;;;;;;;3.35;3.05;;;;;;;18.56;47.19;99310.55;1797073;79;21065;-62
2022/04/16 01:08:05;;;;;;;3.10;2.80;;;;;;;18.55;47.19;99322.34;1794350;80;21010;-61
2022/04/16 01:10:34;;;;;;;3.60;3.20;;;;;;;18.54;47.22;99330.10;1795022;79;21024;-61
2022/04/16 01:13:03;;;;;;;3.87;3.30;;;;;;;18.54;47.22;99338.17;1794909;80;20982;-61
2022/04/16 01:15:30;;;;;;;3.40;3.10;;;;;;;18.53;47.25;99350.00;1795080;80;21046;-61
2022/04/16 01:17:59;;;;;;;3.77;3.42;;;;;;;18.52;47.27;99343.50;1795082;80;21033;-63
2022/04/16 01:20:25;;;;;;;3.15;2.85;;;;;;;18.52;47.28;99321.98;1795066;79;20998;-62
2022/04/16 01:22:56;;;;;;;4.00;3.50;;;;;;;18.50;47.28;99295.84;1792495;79;21053;-63
2022/04/16 01:25:26;;;;;;;3.33;3.02;;;;;;;18.49;47.29;99297.72;1786052;79;21057;-61
2022/04/16 01:27:52;;;;;;;3.00;2.67;;;;;;;18.48;47.30;99279.92;1795023;79;21460;-62
2022/04/16 01:30:22;;;;;;;3.58;3.27;;;;;;;18.48;47.32;99297.41;1795013;79;21013;-61
2022/04/16 01:32:49;;;;;;;3.70;3.02;;;;;;;18.46;47.34;99320.50;1795318;80;21057;-62
2022/04/16 01:35:17;;;;;;;3.75;3.20;;;;;;;18.45;47.38;99331.50;1794953;79;21002;-62
2022/04/16 01:37:43;;;;;;;3.67;3.35;;;;;;;18.45;47.37;99330.16;1795213;79;20994;-62
2022/04/16 01:40:14;;;;;;;3.58;3.27;;;;;;;18.44;47.41;99336.58;1789120;80;21088;-61
2022/04/16 01:42:45;;;;;;;4.58;3.77;;;;;;;18.43;47.40;99334.95;1763595;81;21116;-61
2022/04/16 01:45:11;;;;;;;3.65;3.30;;;;;;;18.43;47.44;99335.77;1763455;81;20955;-62
2022/04/16 01:47:39;;;;;;;3.90;3.50;;;;;;;18.42;47.43;99337.33;1763631;80;20998;-61
2022/04/16 01:50:09;;;;;;;3.80;3.50;;;;;;;18.41;47.43;99331.67;1763587;80;21537;-61
2022/04/16 01:52:37;;;;;;;3.05;2.75;;;;;;;18.41;47.47;99334.36;1763592;81;21013;-62
2022/04/16 01:55:07;;;;;;;3.70;3.22;;;;;;;18.39;47.47;99327.05;1763513;80;21663;-62
2022/04/16 01:57:34;;;;;;;3.30;3.00;;;;;;;18.39;47.48;99323.83;1764831;80;21085;-60
2022/04/16 02:00:00;;;;;;;3.42;3.12;;;;;;;18.38;47.50;99324.05;1763617;81;21076;-61
2022/04/16 02:02:29;;;;;;;3.92;3.30;;;;;;;18.37;47.51;99327.27;1763905;80;21033;-62
2022/04/16 02:04:56;;;;;;;3.95;3.17;;;;;;;18.37;47.52;99330.47;1773394;80;21026;-62
2022/04/16 02:07:23;;;;;;;4.15;3.72;;;;;;;18.36;47.53;99326.96;1796554;79;21136;-62
2022/04/16 02:09:50;;;;;;;3.77;3.40;;;;;;;18.35;47.54;99333.41;1797567;79;21005;-62
2022/04/16 02:12:16;;;;;;;3.22;2.92;;;;;;;18.35;47.56;99332.06;1797112;79;21244;-63
2022/04/16 02:14:43;;;;;;;3.47;3.17;;;;;;;18.34;47.57;99333.62;1784479;79;21017;-61
2022/04/16 02:17:09;;;;;;;3.58;3.27;;;;;;;18.35;47.57;99337.94;1766065;81;21497;-62
2022/04/16 02:19:38;;;;;;;3.85;3.45;;;;;;;18.33;47.60;99347.61;1766213;80;21022;-62
2022/04/16 02:22:06;;;;;;;3.87;3.42;;;;;;;18.32;47.60;99347.30;1766079;80;21025;-61
2022/04/16 02:24:32;;;;;;;3.67;3.37;;;;;;;18.31;47.65;99344.83;1766001;80;21021;-62
2022/04/16 02:26:59;;;;;;;3.85;3.40;;;;;;;18.30;47.65;99346.70;1766134;80;20986;-61
2022/04/16 02:29:27;;;;;;;3.22;2.87;;;;;;;18.29;47.67;99343.70;1766103;80;21111;-62
2022/04/16 02:31:54;;;;;;;3.55;3.25;;;;;;;18.28;47.69;99339.39;1767109;79;21146;-61
2022/04/16 02:34:21;;;;;;;4.17;3.77;;;;;;;18.26;47.69;99338.27;1765906;81;21010;-61
2022/04/16 02:36:48;;;;;;;3.37;3.08;;;;;;;18.26;47.70;99334.23;1766143;81;21052;-61
2022/04/16 02:39:15;;;;;;;3.33;3.02;;;;;;;18.26;47.71;99340.96;1765947;81;21017;-62
2022/04/16 02:41:42;;;;;;;3.87;3.52;;;;;;;18.25;47.75;99337.99;1766047;80;21047;-63
2022/04/16 02:47:05;;;;;;;3.80;3.50;;;;;;;18.24;47.76;99334.99;1765921;81;21249;-62
2022/04/16 02:49:23;;;;;;;3.60;3.10;;;;;;;18.22;47.78;99331.72;1767493;79;21018;-61
2022/04/16 02:51:51;;;;;;;5.28;3.62;;;;;;;18.22;47.80;99342.47;1766049;80;21537;-61
2022/04/16 02:54:20;;;;;;;3.77;3.37;;;;;;;18.21;47.84;99347.53;1765918;80;21068;-62
2022/04/16 02:56:47;;;;;;;3.65;3.35;;;;;;;18.21;47.86;99352.09;1766070;81;21282;-61
2022/04/16 02:59:13;;;;;;;3.62;3.33;;;;;;;18.20;47.89;99357.20;1766190;80;21049;-62
2022/04/16 03:01:41;;;;;;;3.47;3.17;;;;;;;18.19;47.87;99359.58;1765965;79;21525;-62
2022/04/16 03:04:08;;;;;;;4.00;3.60;;;;;;;18.18;47.90;99360.11;1765913;80;21033;-62
2022/04/16 03:06:34;;;;;;;4.00;3.58;;;;;;;18.17;47.92;99362.48;1796180;79;21090;-62
2022/04/16 03:09:01;;;;;;;4.95;3.70;;;;;;;18.16;47.95;99363.55;1797505;79;21753;-61
2022/04/16 03:11:29;;;;;;;3.22;2.90;;;;;;;18.16;47.95;99366.23;1797389;79;21049;-63
2022/04/16 03:17:31;;;;;;;3.33;3.00;;;;;;;18.16;47.95;99371.61;1797492;79;21041;-63
2022/04/16 03:19:11;;;;;;;3.98;3.58;;;;;;;18.13;47.99;99368.02;1779899;79;21075;-61
2022/04/16 03:21:39;;;;;;;5.58;4.03;;;;;;;18.11;48.01;99363.39;1797013;79;21153;-63
2022/04/16 03:24:06;;;;;;;3.80;3.45;;;;;;;18.11;48.04;99366.08;1766086;79;21092;-62
2022/04/16 03:26:34;;;;;;;4.30;3.67;;;;;;;18.10;48.06;99371.17;1766104;81;21060;-63
2022/04/16 03:29:00;;;;;;;4.28;3.45;;;;;;;18.08;48.07;99372.74;1765961;81;21620;-62
2022/04/16 03:31:27;;;;;;;3.98;3.30;;;;;;;18.09;48.09;99376.24;1765999;80;21042;-61
2022/04/16 03:33:53;;;;;;;3.83;3.42;;;;;;;18.07;48.10;99374.30;1765964;81;21144;-61
2022/04/16 03:36:19;;;;;;;3.62;3.33;;;;;;;18.08;48.10;99377.30;1765920;80;22054;-62
2022/04/16 03:38:46;;;;;;;4.05;3.65;;;;;;;18.07;48.13;99378.34;1766973;79;21033;-63
2022/04/16 03:41:13;;;;;;;3.50;3.20;;;;;;;18.06;48.14;99381.56;1765930;80;21002;-62
2022/04/16 03:43:40;;;;;;;3.87;3.52;;;;;;;18.07;48.15;99376.99;1765965;81;21005;-62
2022/04/16 03:46:06;;;;;;;3.40;3.10;;;;;;;18.05;48.17;99379.91;1765890;81;21027;-61
2022/04/16 03:48:33;;;;;;;3.40;3.10;;;;;;;18.05;48.20;99384.47;1766233;80;20985;-61
2022/04/16 03:51:00;;;;;;;3.70;3.40;;;;;;;18.05;48.21;99389.84;1766019;81;21142;-61
2022/04/16 03:53:26;;;;;;;4.05;3.65;;;;;;;18.05;48.22;99387.16;1766042;81;21033;-62
2022/04/16 04:01:25;;;;;;;3.70;3.37;;;;;;;18.02;48.29;99375.49;1765996;81;21006;-61
2022/04/16 04:03:51;;;;;;;4.08;3.45;;;;;;;18.02;48.30;99382.22;1765861;79;20966;-61
2022/04/16 04:06:18;;;;;;;3.85;3.42;;;;;;;18.01;48.31;99385.44;1793711;79;21108;-62
2022/04/16 04:08:46;;;;;;;3.75;3.35;;;;;;;18.01;48.35;99385.44;1791758;79;21022;-61
2022/04/16 04:11:12;;;;;;;3.52;3.22;;;;;;;18.00;48.39;99389.69;1791866;80;21327;-61
2022/04/16 04:13:39;;;;;;;3.85;3.45;;;;;;;18.00;48.38;99389.69;1790555;80;21030;-63
2022/04/16 04:16:06;;;;;;;3.98;3.58;;;;;;;18.00;48.39;99393.22;1791513;80;21021;-61
2022/04/16 04:18:33;;;;;;;4.28;3.87;;;;;;;17.98;48.41;99396.66;1791647;80;20990;-62
2022/04/16 04:21:00;;;;;;;4.35;3.95;;;;;;;17.99;48.42;99396.12;1791620;79;21548;-62
2022/04/16 04:23:26;;;;;;;3.58;3.17;;;;;;;17.99;48.45;99402.84;1785933;80;22267;-62
2022/04/16 04:25:53;;;;;;;3.47;3.17;;;;;;;17.98;48.47;99398.00;1790050;80;21083;-62
2022/04/16 04:28:20;;;;;;;4.03;3.50;;;;;;;17.99;48.48;99398.81;1791665;80;21077;-61
2022/04/16 04:30:48;;;;;;;4.00;3.47;;;;;;;17.98;48.47;99395.81;1777451;79;21536;-61
2022/04/16 04:33:15;;;;;;;4.03;3.70;;;;;;;17.98;48.50;99398.00;1760533;81;21033;-61
2022/04/16 04:35:43;;;;;;;4.50;3.60;;;;;;;17.98;48.51;99399.84;1760491;81;21763;-61
2022/04/16 04:38:10;;;;;;;4.08;3.67;;;;;;;17.98;48.53;99398.00;1760393;81;21126;-62
2022/04/16 04:40:36;;;;;;;4.10;3.67;;;;;;;17.97;48.55;99395.53;1760419;81;21093;-62
2022/04/16 04:43:03;;;;;;;4.60;4.20;;;;;;;17.97;48.56;99395.53;1760449;81;21053;-62
2022/04/16 04:45:30;;;;;;;4.08;3.67;;;;;;;17.97;48.56;99395.00;1760427;81;21048;-61
2022/04/16 04:47:58;;;;;;;4.03;3.72;;;;;;;17.97;48.59;99392.84;1761410;80;21497;-61
2022/04/16 04:50:24;;;;;;;3.83;3.52;;;;;;;17.96;48.60;99396.03;1760530;81;21544;-61
2022/04/16 04:52:52;;;;;;;4.40;3.85;;;;;;;17.97;48.60;99396.88;1760457;81;21025;-61
2022/04/16 04:55:19;;;;;;;4.10;3.70;;;;;;;17.97;48.62;99394.19;1760671;81;21010;-63
2022/04/16 04:57:45;;;;;;;3.65;3.33;;;;;;;17.96;48.65;99396.03;1760526;81;21057;-61
2022/04/16 05:00:14;;;;;;;3.70;3.40;;;;;;;17.97;48.66;99395.00;1760357;81;21152;-62
2022/04/16 05:02:43;;;;;;;4.20;3.70;;;;;;;17.96;48.68;99393.34;1760321;80;20966;-62
2022/04/16 05:05:09;;;;;;;4.08;3.65;;;;;;;17.97;48.67;99392.31;1774300;79;21029;-61
2022/04/16 05:07:36;;;;;;;4.08;3.30;;;;;;;17.97;48.71;99384.78;1758881;81;21029;-62
2022/04/16 05:10:06;;;;;;;3.87;3.58;;;;;;;17.97;48.72;99386.13;1762330;81;21053;-62
2022/04/16 05:12:32;;;;;;;3.83;3.45;;;;;;;17.98;48.72;99389.09;1762257;81;21141;-61
2022/04/16 05:15:02;;;;;;;4.15;3.75;;;;;;;17.98;48.74;99383.72;1762288;81;21077;-62
2022/04/16 05:17:29;;;;;;;3.90;3.45;;;;;;;17.97;48.74;99378.88;1762381;81;20998;-62
2022/04/16 05:19:56;;;;;;;3.95;3.55;;;;;;;17.97;48.76;99384.25;1762563;81;21493;-62
2022/04/16 05:22:23;;;;;;;4.15;3.80;;;;;;;17.98;48.79;99375.66;1740929;81;21543;-63
2022/04/16 05:24:51;;;;;;;3.83;3.52;;;;;;;17.98;48.79;99377.00;1731965;82;21018;-62
2022/04/16 05:27:18;;;;;;;4.08;3.65;;;;;;;17.99;48.81;99375.97;1734066;81;21073;-62
2022/04/16 05:30:04;;;;;;;4.62;3.62;;;;;;;17.99;48.83;99375.97;1735487;82;21525;-62
2022/04/16 05:32:27;;;;;;;4.20;3.70;;;;;;;17.99;48.84;99381.34;1747002;82;21014;-62
2022/04/16 05:34:56;;;;;;;4.35;3.50;;;;;;;17.99;48.85;99380.81;1722389;82;21018;-62
2022/04/16 05:37:23;;;;;;;3.80;3.50;;;;;;;18.00;48.85;99381.63;1748068;82;22274;-62
2022/04/16 05:39:50;;;;;;;4.42;3.77;;;;;;;18.01;48.86;99388.12;1721101;82;21027;-61
2022/04/16 05:42:17;;;;;;;4.20;3.83;;;;;;;18.02;48.88;99387.59;1719316;83;21062;-62
2022/04/16 05:44:43;;;;;;;3.15;2.90;;;;;;;18.03;48.88;99386.55;1671569;83;21021;-61
2022/04/16 05:47:09;;;;;;;4.10;3.70;;;;;;;18.05;48.87;99383.94;1719489;83;21482;-62
2022/04/16 05:49:36;;;;;;;3.92;3.60;;;;;;;18.06;48.89;99380.74;1719349;83;21191;-62
2022/04/16 05:52:03;;;;;;;4.00;3.60;;;;;;;18.08;49.00;99382.69;1719211;83;21050;-61
2022/04/16 05:54:30;;;;;;;3.87;3.58;;;;;;;18.09;49.07;99374.90;1719252;83;21041;-61
2022/04/16 05:56:57;;;;;;;4.22;3.80;;;;;;;18.12;49.09;99382.52;1720370;82;21029;-62
2022/04/16 05:59:24;;;;;;;3.90;3.58;;;;;;;18.14;49.21;99380.43;1719297;83;21046;-62
2022/04/16 06:01:50;;;;;;;3.98;3.67;;;;;;;18.17;49.20;99376.45;1719196;82;22154;-62
2022/04/16 06:04:17;;;;;;;3.80;3.50;;;;;;;18.18;49.34;99380.27;1726859;82;21101;-62
2022/04/16 06:06:46;;;;;;;4.28;3.87;;;;;;;18.21;49.31;99381.14;1749112;82;21065;-62
2022/04/16 06:09:13;;;;;;;4.00;3.60;;;;;;;18.24;49.35;99383.92;1746376;82;21480;-62
2022/04/16 06:11:42;;;;;;;4.05;3.75;;;;;;;18.26;49.35;99381.30;1746189;82;21014;-62
2022/04/16 06:14:09;;;;;;;4.17;3.77;;;;;;;18.29;49.31;99381.34;1745973;82;21285;-62
2022/04/16 06:16:36;;;;;;;3.42;3.12;;;;;;;18.30;49.24;99380.31;1746140;82;21026;-62
2022/04/16 06:19:02;;;;;;;4.00;3.60;;;;;;;18.32;49.25;99374.19;1746109;82;21076;-63
2022/04/16 06:21:29;;;;;;;4.25;3.85;;;;;;;18.36;49.26;99382.63;1746182;82;21063;-62
2022/04/16 06:23:57;;;;;;;3.55;3.25;;;;;;;18.37;49.28;99384.25;1746121;82;21018;-62
2022/04/16 06:26:26;;;;;;;4.17;3.77;;;;;;;18.40;49.23;99393.22;1746173;82;21258;-61
2022/04/16 06:28:52;;;;;;;4.72;4.22;;;;;;;18.40;49.27;99391.34;1744976;82;21022;-62
2022/04/16 06:31:19;;;;;;;4.10;3.70;;;;;;;18.41;49.27;99390.30;1746199;82;21066;-63
2022/04/16 06:33:46;;;;;;;4.40;4.00;;;;;;;18.43;49.28;99391.42;1743704;82;21048;-62
2022/04/16 06:36:13;;;;;;;4.28;3.87;;;;;;;18.44;49.25;99390.36;1742284;82;21054;-61
2022/04/16 06:38:39;;;;;;;3.90;3.55;;;;;;;18.46;49.27;99389.61;1746236;82;22082;-61
2022/04/16 06:41:06;;;;;;;3.85;3.45;;;;;;;18.46;49.26;99387.73;1746050;82;21042;-62
2022/04/16 06:43:32;;;;;;;4.97;3.72;;;;;;;18.47;49.27;99393.42;1746188;82;21038;-61
2022/04/16 06:46:01;;;;;;;4.00;3.60;;;;;;;18.48;49.28;99386.16;1741914;82;21030;-61
2022/04/16 06:48:27;;;;;;;5.25;4.20;;;;;;;18.49;49.29;99390.52;1716477;83;21025;-62
2022/04/16 06:50:54;;;;;;;5.05;3.95;;;;;;;18.50;49.28;99392.67;1716436;83;21214;-62
2022/04/16 06:53:21;;;;;;;4.03;3.72;;;;;;;18.50;49.30;99392.14;1716285;83;21058;-61
2022/04/16 06:55:47;;;;;;;4.17;3.80;;;;;;;18.50;49.31;99394.83;1716502;83;21590;-61
2022/04/16 06:58:14;;;;;;;4.78;4.00;;;;;;;18.52;49.30;99400.80;1716269;83;21584;-62
2022/04/16 07:00:41;;;;;;;4.17;3.77;;;;;;;18.52;49.30;99396.77;1716571;83;21566;-62
2022/04/16 07:03:08;;;;;;;4.95;4.10;;;;;;;18.54;49.28;99396.54;1717423;82;21570;-61
2022/04/16 07:05:35;;;;;;;4.35;3.95;;;;;;;18.54;49.25;99397.34;1740268;82;21034;-61
2022/04/16 07:08:04;;;;;;;4.40;4.00;;;;;;;18.55;49.28;99396.31;1746058;81;20990;-61
2022/04/16 07:10:31;;;;;;;4.10;3.70;;;;;;;18.56;49.29;99399.81;1746206;82;21050;-62
2022/04/16 07:12:58;;;;;;;3.60;3.30;;;;;;;18.56;49.30;99396.63;1746103;82;21065;-62
2022/04/16 07:15:24;;;;;;;5.20;4.12;;;;;;;18.57;49.27;99406.32;1746125;82;21119;-61
2022/04/16 07:17:52;;;;;;;3.67;3.37;;;;;;;18.58;49.27;99405.79;1746060;82;21037;-63
2022/04/16 07:20:19;;;;;;;4.10;3.70;;;;;;;18.58;49.27;99399.06;1745235;82;21014;-62
2022/04/16 07:22:45;;;;;;;4.15;3.75;;;;;;;18.60;49.29;99400.49;1746218;82;21015;-62
2022/04/16 07:25:12;;;;;;;4.42;3.50;;;;;;;18.61;49.32;99408.84;1746048;82;21054;-63
2022/04/16 07:27:42;;;;;;;4.12;3.72;;;;;;;18.63;49.33;99401.90;1746177;82;21509;-62
2022/04/16 07:30:13;;;;;;;4.30;3.90;;;;;;;18.65;49.34;99407.34;1745967;82;21097;-62
2022/04/16 07:32:39;;;;;;;4.58;3.80;;;;;;;18.66;49.35;99403.61;1746145;82;22187;-62
2022/04/16 07:35:07;;;;;;;3.60;3.30;;;;;;;18.69;49.43;99401.50;1746130;82;21082;-62
2022/04/16 07:37:33;;;;;;;3.83;3.52;;;;;;;18.70;49.45;99399.09;1745074;82;21010;-62
2022/04/16 07:40:01;;;;;;;3.62;3.30;;;;;;;18.73;49.52;99406.72;1739662;82;21085;-61
2022/04/16 07:42:27;;;;;;;3.72;3.42;;;;;;;18.75;49.49;99404.62;1746054;82;21569;-62
2022/04/16 07:44:55;;;;;;;3.62;3.33;;;;;;;18.76;49.50;99402.23;1746164;82;21030;-63
2022/04/16 07:47:21;;;;;;;3.98;3.65;;;;;;;18.78;49.55;99406.33;1746282;82;21021;-62
2022/04/16 07:49:48;;;;;;;3.92;3.52;;;;;;;18.80;49.57;99409.64;1746270;82;22027;-61
2022/04/16 07:52:14;;;;;;;3.72;3.42;;;;;;;18.81;49.64;99406.42;1746205;82;21948;-63
2022/04/16 07:54:41;;;;;;;4.05;3.70;;;;;;;18.82;49.59;99406.73;1733809;82;21165;-62
2022/04/16 07:57:13;;;;;;;3.47;3.17;;;;;;;18.81;49.58;99408.61;1716300;83;21062;-62
2022/04/16 07:59:38;;;;;;;3.77;3.47;;;;;;;18.84;49.56;99411.35;1716307;83;21094;-62
2022/04/16 08:02:07;;;;;;;3.77;3.47;;;;;;;18.84;49.55;99417.55;1716316;82;21017;-62
2022/04/16 08:04:33;;;;;;;3.65;3.35;;;;;;;18.85;49.48;99419.20;1739907;81;21779;-63
2022/04/16 08:07:00;;;;;;;3.65;3.30;;;;;;;18.87;49.50;99414.91;1745871;82;21065;-61
2022/04/16 08:09:27;;;;;;;3.60;3.30;;;;;;;18.88;49.50;99413.87;1746094;82;21049;-62
2022/04/16 08:11:54;;;;;;;3.77;3.10;;;;;;;18.89;49.46;99418.22;1731434;82;21530;-62
2022/04/16 08:14:20;;;;;;;4.20;3.83;;;;;;;18.91;49.47;99422.00;1716369;83;21059;-62
2022/04/16 08:16:48;;;;;;;3.85;3.55;;;;;;;18.93;49.46;99425.28;1716400;83;21538;-61
2022/04/16 08:21:26;;;;;;;4.37;3.98;;;;;;;18.99;49.53;99423.84;1815334;79;22714;-61
2022/04/16 08:24:03;;;;;;;3.60;3.30;;;;;;;18.97;49.47;99431.34;1788502;80;21002;-61
2022/04/16 08:26:26;;;;;;;3.80;3.50;;;;;;;18.99;49.41;99431.92;1787712;80;26130;-62
2022/04/16 08:28:53;;;;;;;3.80;3.50;;;;;;;19.00;49.41;99436.24;1773281;80;21009;-62
2022/04/16 08:31:20;;;;;;;3.80;3.50;;;;;;;19.00;49.33;99432.20;1757179;81;21052;-62
2022/04/16 08:33:46;;;;;;;4.15;3.75;;;;;;;19.02;49.28;99430.63;1757330;81;21021;-62
2022/04/16 08:36:13;;;;;;;3.77;3.47;;;;;;;19.03;49.24;99422.33;1757215;81;21017;-61
2022/04/16 08:38:41;;;;;;;3.65;3.35;;;;;;;19.06;49.25;99426.42;1757344;81;20977;-61
2022/04/16 08:41:09;;;;;;;3.65;3.35;;;;;;;19.07;49.23;99425.39;1757077;81;21013;-63
2022/04/16 08:43:36;;;;;;;3.77;3.47;;;;;;;19.09;49.24;99425.97;1757295;81;21061;-63
2022/04/16 08:46:04;;;;;;;3.50;3.20;;;;;;;19.10;49.26;99422.21;1766215;79;21077;-63
2022/04/16 08:48:32;;;;;;;3.65;3.35;;;;;;;19.12;49.25;99423.33;1753733;81;21564;-61
2022/04/16 08:50:59;;;;;;;3.83;3.45;;;;;;;19.14;49.26;99426.61;1753671;81;21144;-62
2022/04/16 08:53:25;;;;;;;3.83;3.42;;;;;;;19.14;49.25;99416.69;1753763;81;21002;-62
2022/04/16 08:55:53;;;;;;;3.90;3.60;;;;;;;19.16;49.25;99410.54;1753856;81;21513;-62
2022/04/16 08:58:19;;;;;;;3.77;3.47;;;;;;;19.19;49.27;99413.28;1753761;81;21057;-62
2022/04/16 09:00:45;;;;;;;3.77;3.47;;;;;;;19.22;49.29;99410.14;1753826;81;21114;-63
2022/04/16 09:03:12;;;;;;;3.62;3.33;;;;;;;19.25;49.33;99410.47;1758266;80;21146;-61
2022/04/16 09:05:38;;;;;;;4.33;3.92;;;;;;;19.29;49.43;99416.75;1763132;81;21017;-65
2022/04/16 09:08:07;;;;;;;3.45;3.15;;;;;;;19.31;49.48;99418.14;1763032;81;21021;-62
2022/04/16 09:10:36;;;;;;;3.75;3.45;;;;;;;19.33;49.53;99421.42;1763433;81;21112;-63
2022/04/16 09:13:05;;;;;;;3.25;3.02;;;;;;;19.35;49.52;99424.70;1763258;81;21044;-61
2022/04/16 09:15:34;;;;;;;3.92;3.52;;;;;;;19.36;49.54;99433.62;1763160;81;21161;-61
2022/04/16 09:18:05;;;;;;;4.08;3.70;;;;;;;19.37;49.56;99441.98;1763084;81;21021;-61
2022/04/16 09:20:36;;;;;;;3.50;3.20;;;;;;;19.37;49.55;99452.75;1748908;80;21030;-65
2022/04/16 09:23:20;;;;;;;3.77;3.47;;;;;;;19.36;49.50;99447.91;1737383;82;21131;-62
2022/04/16 09:25:49;;;;;;;3.45;3.15;;;;;;;19.36;49.46;99456.52;1737442;82;21526;-61
2022/04/16 09:28:19;;;;;;;4.03;3.67;;;;;;;19.35;49.39;99465.09;1737185;82;21042;-61
2022/04/16 09:30:53;;;;;;;3.67;3.37;;;;;;;19.34;49.38;99472.09;1736722;82;21522;-62
2022/04/16 09:33:20;;;;;;;3.10;2.80;;;;;;;19.33;49.38;99482.55;1736676;82;21589;-62
2022/04/16 09:35:50;;;;;;;4.40;4.00;;;;;;;19.31;49.35;99485.47;1737963;81;21026;-62
2022/04/16 09:38:17;;;;;;;3.17;2.90;;;;;;;19.30;49.35;99500.01;1710257;82;21002;-62
2022/04/16 09:40:47;;;;;;;3.62;3.33;;;;;;;19.29;49.34;99509.12;1736671;82;21318;-62
2022/04/16 09:43:14;;;;;;;3.77;3.27;;;;;;;19.29;49.35;99516.39;1736547;82;21049;-61
2022/04/16 09:45:41;;;;;;;3.25;2.95;;;;;;;19.27;49.38;99515.27;1736771;82;21569;-61
2022/04/16 09:48:12;;;;;;;3.67;3.37;;;;;;;19.26;49.37;99512.30;1761507;81;21003;-62
2022/04/16 09:50:41;;;;;;;3.05;2.85;;;;;;;19.25;49.37;99520.06;1716319;83;21096;-61
2022/04/16 09:53:09;;;;;;;3.30;3.00;;;;;;;19.23;49.40;99526.21;1710120;83;21151;-62
2022/04/16 09:55:36;;;;;;;3.37;3.08;;;;;;;19.22;49.38;99532.66;1689278;85;21038;-62
2022/04/16 09:58:04;;;;;;;3.65;3.35;;;;;;;19.20;49.33;99542.81;1767243;81;21526;-62
2022/04/16 10:00:35;;;;;;;3.15;2.90;;;;;;;19.17;49.28;99544.63;1767112;81;21006;-61
2022/04/16 10:03:07;;;;;;;3.62;3.30;;;;;;;19.17;49.32;99548.67;1767111;80;21078;-62
2022/04/16 10:05:35;;;;;;;3.52;3.22;;;;;;;19.15;49.32;99553.47;1767247;81;21137;-62
2022/04/16 10:08:03;;;;;;;3.65;3.35;;;;;;;19.12;49.30;99557.95;1766992;81;21030;-62
2022/04/16 10:10:31;;;;;;;3.20;3.00;;;;;;;19.09;49.29;99561.94;1766036;81;21038;-61
2022/04/16 10:13:04;;;;;;;3.40;3.10;;;;;;;19.07;49.30;99561.88;1767307;81;21027;-62
2022/04/16 10:15:56;;;;;;;3.67;3.25;;;;;;;19.03;49.26;99559.63;1767266;81;21027;-62
2022/04/16 10:18:22;;;;;;;3.25;2.95;;;;;;;19.02;49.21;99563.35;1767144;81;21213;-62
2022/04/16 10:20:57;;;;;;;3.30;2.95;;;;;;;19.00;49.19;99565.98;1770549;80;21584;-61
2022/04/16 10:23:38;;;;;;;3.27;2.98;;;;;;;18.97;49.16;99571.31;1774264;80;21201;-62
2022/04/16 10:26:12;;;;;;;3.30;3.00;;;;;;;18.95;49.16;99577.45;1774183;80;21029;-62
2022/04/16 10:28:53;;;;;;;3.47;3.17;;;;;;;18.93;49.17;99584.93;1773079;80;21069;-61
2022/04/16 10:31:32;;;;;;;3.30;3.00;;;;;;;18.90;49.16;99589.41;1774488;80;21241;-63
2022/04/16 10:34:10;;;;;;;3.42;3.12;;;;;;;18.88;49.16;99596.08;1774342;80;21538;-61
2022/04/16 10:36:54;;;;;;;3.10;2.85;;;;;;;18.86;49.17;99588.22;1774176;80;21127;-62
2022/04/16 10:39:34;;;;;;;3.02;2.83;;;;;;;18.83;49.19;99588.66;1774170;80;21332;-61
2022/04/16 10:42:05;;;;;;;3.50;3.20;;;;;;;18.80;49.20;99598.02;1774160;80;21027;-61
2022/04/16 10:44:46;;;;;;;3.50;3.20;;;;;;;18.79;49.19;99572.64;1773377;80;21549;-61
2022/04/16 10:47:14;;;;;;;4.20;3.80;;;;;;;18.78;49.11;99605.99;1774046;80;21010;-60
2022/04/16 10:49:41;;;;;;;4.33;3.92;;;;;;;18.78;48.58;99608.69;1774379;80;21566;-61
2022/04/16 10:52:21;;;;;;;4.42;4.05;;;;;;;18.77;48.42;99611.06;1774126;80;21045;-60
2022/04/16 10:54:48;;;;;;;4.40;4.00;;;;;;;18.76;48.36;99620.20;1773692;80;21482;-61
2022/04/16 10:57:21;;;;;;;5.33;4.00;;;;;;;18.74;48.42;99616.91;1772545;80;21143;-63
2022/04/16 10:59:49;;;;;;;4.67;3.70;;;;;;;18.72;48.46;99616.31;1774138;80;21003;-63
2022/04/16 11:02:28;;;;;;;3.77;3.47;;;;;;;18.71;48.55;99616.00;1773528;80;21069;-63
2022/04/16 11:05:03;;;;;;;4.30;3.90;;;;;;;18.68;48.61;99614.59;1773431;80;21042;-62
2022/04/16 11:07:35;;;;;;;4.17;3.83;;;;;;;18.67;48.65;99624.51;1774338;80;21071;-62
2022/04/16 11:10:04;;;;;;;3.95;3.55;;;;;;;18.65;48.71;99631.98;1774211;80;21242;-62
2022/04/16 11:12:32;;;;;;;3.98;3.65;;;;;;;18.62;48.77;99641.87;1773867;80;21074;-63
2022/04/16 11:15:00;;;;;;;3.75;3.45;;;;;;;18.61;48.80;99644.24;1774373;80;21038;-62
2022/04/16 11:17:27;;;;;;;3.90;3.33;;;;;;;18.59;48.86;99647.68;1774234;80;21495;-62
2022/04/16 11:20:02;;;;;;;4.03;3.70;;;;;;;18.58;48.93;99647.89;1773005;80;21097;-62
2022/04/16 11:22:30;;;;;;;4.22;3.92;;;;;;;18.57;48.94;99646.27;1774491;80;21794;-62
2022/04/16 11:25:00;;;;;;;3.77;3.47;;;;;;;18.54;48.98;99641.32;1774107;80;21038;-62
2022/04/16 11:36:07;;;;;;;3.90;3.60;;;;;;;18.47;49.14;99640.06;1773372;80;21271;-61
2022/04/16 11:38:36;;;;;;;3.67;3.37;;;;;;;18.44;49.18;99635.11;1774499;80;21757;-61
2022/04/16 11:41:05;;;;;;;3.52;3.22;;;;;;;18.43;49.22;99645.59;1770269;80;21686;-62
2022/04/16 11:43:33;;;;;;;3.60;3.30;;;;;;;18.41;49.26;99642.30;1759213;80;21018;-62
2022/04/16 11:46:02;;;;;;;3.52;3.22;;;;;;;18.39;49.28;99643.86;1774186;80;21069;-63
2022/04/16 11:48:31;;;;;;;3.55;3.25;;;;;;;18.38;49.31;99651.61;1774262;80;21209;-62
2022/04/16 11:50:58;;;;;;;3.33;2.98;;;;;;;18.38;49.34;99662.89;1774013;80;21065;-61
2022/04/16 11:53:25;;;;;;;3.40;3.10;;;;;;;18.38;49.38;99662.89;1752814;80;21050;-61
2022/04/16 11:55:53;;;;;;;4.25;3.72;;;;;;;18.36;49.40;99666.33;1743492;82;21290;-61
2022/04/16 11:58:28;;;;;;;3.10;2.80;;;;;;;18.34;49.42;99662.51;1743525;82;21085;-62
2022/04/16 12:00:55;;;;;;;3.45;3.15;;;;;;;18.32;49.42;99663.25;1748053;80;21219;-61